Language: 


Des rapports , des résumés tant et plus, au choix de chacun....


Données statistiques de la station
Quotidien Rapport Mars 16, 2017 Unités:  Métrique    Anglais   les deux
« Précédent Jour
Suivant Jour »
Quotidien Hebdomadaire Mensuel Annuel Actuel
  Haut: Bas: Moyen:
Température: 19.8 °C 2.7 °C 11 °C
Pt de rosée: 13.3 °C 2.4 °C 6.8 °C
Humidité: 98 % 47 % 78 %
Vitesse du vent: 16.3 km/h 0.0 km/h 3.9 km/h
Rafales: 19.8 km/h - -
Vent:- - SSW
Pression: 1029.0 hPa 1016.8 hPa -
Précipitation: 0.0 mm    
Historical Graphs
 
 
Données statistiques pour Mars 16, 2017
Heure Température Point de rosée Pression Vent Vitesse du vent Refales Humidité Pluie (taux horaire)
00:02 5.8 °C 4.6 °C 1029.0 hPa Calm     92 % 0.0 mm
00:07 5.7 °C 4.5 °C 1028.0 hPa Calm     92 % 0.0 mm
00:12 5.7 °C 4.5 °C 1028.0 hPa Calm     92 % 0.0 mm
00:17 5.7 °C 4.7 °C 1028.0 hPa Calm     93 % 0.0 mm
00:22 5.6 °C 4.6 °C 1028.0 hPa Calm     93 % 0.0 mm
00:27 5.5 °C 4.4 °C 1028.0 hPa Calm     93 % 0.0 mm
00:32 5.5 °C 4.4 °C 1028.0 hPa Calm     93 % 0.0 mm
00:37 5.5 °C 4.4 °C 1029.0 hPa Calm     93 % 0.0 mm
00:42 5.4 °C 4.5 °C 1029.0 hPa Calm     94 % 0.0 mm
00:47 5.3 °C 4.4 °C 1029.0 hPa Calm     94 % 0.0 mm
00:53 5.3 °C 4.4 °C 1029.0 hPa WNW 1.4 km/h 4.0 km/h 94 % 0.0 mm
00:58 5.4 °C 4.5 °C 1029.0 hPa Calm   4.0 km/h 94 % 0.0 mm
01:03 5.3 °C 4.4 °C 1029.0 hPa Calm   2.6 km/h 94 % 0.0 mm
01:08 5.2 °C 4.3 °C 1029.0 hPa Calm   2.1 km/h 94 % 0.0 mm
01:13 5.1 °C 4.2 °C 1029.0 hPa Calm   2.1 km/h 94 % 0.0 mm
01:18 5.1 °C 4.2 °C 1029.0 hPa Calm   1.8 km/h 94 % 0.0 mm
01:23 5.1 °C 4.3 °C 1028.0 hPa Calm   1.8 km/h 95 % 0.0 mm
01:28 5.0 °C 4.3 °C 1028.0 hPa WNW 3.2 km/h 3.5 km/h 95 % 0.0 mm
01:33 4.9 °C 4.2 °C 1028.0 hPa WNW 3.5 km/h 4.0 km/h 95 % 0.0 mm
01:38 4.9 °C 4.2 °C 1028.0 hPa Calm   4.0 km/h 95 % 0.0 mm
01:43 5.0 °C 4.3 °C 1028.0 hPa Calm   3.5 km/h 95 % 0.0 mm
01:48 4.9 °C 4.2 °C 1028.0 hPa Calm     95 % 0.0 mm
01:53 4.7 °C 4.1 °C 1028.0 hPa Calm     96 % 0.0 mm
01:58 4.7 °C 4.1 °C 1028.0 hPa Calm     96 % 0.0 mm
02:03 4.7 °C 4.1 °C 1028.0 hPa Calm     96 % 0.0 mm
02:08 4.7 °C 4.1 °C 1028.0 hPa Calm     96 % 0.0 mm
02:13 4.6 °C 4.0 °C 1028.0 hPa Calm     96 % 0.0 mm
02:18 4.6 °C 4.0 °C 1028.0 hPa Calm     96 % 0.0 mm
02:23 4.6 °C 4.0 °C 1027.0 hPa Calm     96 % 0.0 mm
02:28 4.6 °C 4.0 °C 1027.0 hPa Calm     96 % 0.0 mm
02:33 4.6 °C 4.0 °C 1027.0 hPa Calm     96 % 0.0 mm
02:38 4.6 °C 4.2 °C 1027.0 hPa Calm     97 % 0.0 mm
02:43 4.7 °C 4.3 °C 1027.0 hPa Calm     97 % 0.0 mm
02:48 4.7 °C 4.3 °C 1027.0 hPa Calm     97 % 0.0 mm
02:53 4.8 °C 4.4 °C 1026.0 hPa Calm     97 % 0.0 mm
02:58 4.7 °C 4.3 °C 1026.0 hPa Calm     97 % 0.0 mm
03:03 4.6 °C 4.2 °C 1026.0 hPa Calm     97 % 0.0 mm
03:08 4.5 °C 4.1 °C 1027.0 hPa Calm     97 % 0.0 mm
03:13 4.3 °C 3.9 °C 1027.0 hPa Calm     97 % 0.0 mm
03:18 4.3 °C 3.9 °C 1027.0 hPa Calm     97 % 0.0 mm
03:23 4.3 °C 3.9 °C 1027.0 hPa Calm     97 % 0.0 mm
03:28 4.2 °C 3.8 °C 1027.0 hPa Calm     97 % 0.0 mm
03:33 4.2 °C 3.8 °C 1027.0 hPa Calm     97 % 0.0 mm
03:38 4.1 °C 3.7 °C 1028.0 hPa Calm     97 % 0.0 mm
03:43 4.0 °C 3.6 °C 1028.0 hPa Calm     97 % 0.0 mm
03:48 3.9 °C 3.5 °C 1028.0 hPa Calm     97 % 0.0 mm
03:53 3.9 °C 3.5 °C 1027.0 hPa Calm     97 % 0.0 mm
03:58 3.9 °C 3.5 °C 1027.0 hPa Calm     97 % 0.0 mm
04:03 3.9 °C 3.5 °C 1027.0 hPa Calm     97 % 0.0 mm
04:08 3.8 °C 3.6 °C 1026.0 hPa Calm     98 % 0.0 mm
04:13 3.8 °C 3.6 °C 1026.0 hPa Calm     98 % 0.0 mm
04:19 3.7 °C 3.4 °C 1026.0 hPa Calm     98 % 0.0 mm
04:24 3.7 °C 3.4 °C 1026.0 hPa Calm     98 % 0.0 mm
04:29 3.7 °C 3.4 °C 1026.0 hPa Calm     98 % 0.0 mm
04:34 3.7 °C 3.4 °C 1026.0 hPa Calm     98 % 0.0 mm
04:39 3.8 °C 3.6 °C 1026.0 hPa Calm     98 % 0.0 mm
04:44 3.9 °C 3.6 °C 1026.0 hPa Calm     98 % 0.0 mm
04:49 4.0 °C 3.7 °C 1026.0 hPa Calm     98 % 0.0 mm
04:54 4.0 °C 3.7 °C 1026.0 hPa Calm     98 % 0.0 mm
04:59 4.1 °C 3.8 °C 1026.0 hPa Calm     98 % 0.0 mm
05:04 4.0 °C 3.7 °C 1026.0 hPa Calm     98 % 0.0 mm
05:09 4.0 °C 3.7 °C 1026.0 hPa Calm     98 % 0.0 mm
05:14 4.0 °C 3.7 °C 1026.0 hPa Calm     98 % 0.0 mm
05:19 4.0 °C 3.7 °C 1026.0 hPa Calm     98 % 0.0 mm
05:24 4.0 °C 3.7 °C 1026.0 hPa Calm     98 % 0.0 mm
05:29 4.0 °C 3.7 °C 1026.0 hPa Calm     98 % 0.0 mm
05:34 4.1 °C 3.8 °C 1026.0 hPa Calm     98 % 0.0 mm
05:39 4.0 °C 3.7 °C 1026.0 hPa Calm     98 % 0.0 mm
05:44 4.0 °C 3.7 °C 1026.0 hPa Calm     98 % 0.0 mm
05:49 4.0 °C 3.7 °C 1026.0 hPa Calm     98 % 0.0 mm
05:54 3.9 °C 3.6 °C 1024.9 hPa Calm     98 % 0.0 mm
05:59 3.8 °C 3.6 °C 1024.9 hPa Calm     98 % 0.0 mm
06:04 3.7 °C 3.4 °C 1024.9 hPa Calm     98 % 0.0 mm
06:09 3.6 °C 3.3 °C 1026.0 hPa Calm     98 % 0.0 mm
06:14 3.6 °C 3.2 °C 1026.0 hPa Calm     98 % 0.0 mm
06:19 3.4 °C 3.2 °C 1026.0 hPa Calm     98 % 0.0 mm
06:24 3.3 °C 3.1 °C 1024.9 hPa Calm     98 % 0.0 mm
06:29 3.2 °C 2.9 °C 1024.9 hPa Calm     98 % 0.0 mm
06:34 3.1 °C 2.8 °C 1024.9 hPa Calm     98 % 0.0 mm
06:39 3.1 °C 2.8 °C 1024.9 hPa Calm     98 % 0.0 mm
06:49 2.8 °C 2.6 °C 1024.9 hPa Calm     98 % 0.0 mm
06:54 2.7 °C 2.4 °C 1024.9 hPa Calm     98 % 0.0 mm
06:59 2.9 °C 2.7 °C 1024.9 hPa Calm     98 % 0.0 mm
07:04 3.2 °C 2.9 °C 1024.9 hPa ENE 3.5 km/h 4.0 km/h 98 % 0.0 mm
07:09 3.4 °C 3.2 °C 1024.9 hPa Calm   4.7 km/h 98 % 0.0 mm
07:14 3.4 °C 3.2 °C 1024.9 hPa Calm   4.7 km/h 98 % 0.0 mm
07:19 3.4 °C 3.2 °C 1024.9 hPa Calm     98 % 0.0 mm
07:24 3.4 °C 3.2 °C 1024.9 hPa Calm     98 % 0.0 mm
07:29 3.6 °C 3.2 °C 1024.9 hPa Calm     98 % 0.0 mm
07:34 3.6 °C 3.3 °C 1024.9 hPa Calm     98 % 0.0 mm
07:39 3.7 °C 3.4 °C 1024.9 hPa Calm     98 % 0.0 mm
07:44 3.8 °C 3.6 °C 1024.9 hPa Calm     98 % 0.0 mm
07:49 4.0 °C 3.7 °C 1024.9 hPa Calm     98 % 0.0 mm
07:54 4.3 °C 4.0 °C 1024.9 hPa Calm     98 % 0.0 mm
08:00 4.6 °C 4.3 °C 1024.9 hPa Calm     98 % 0.0 mm
08:05 4.8 °C 4.5 °C 1024.9 hPa Calm   1.4 km/h 98 % 0.0 mm
08:10 5.1 °C 4.8 °C 1024.9 hPa Calm   1.4 km/h 98 % 0.0 mm
08:15 5.6 °C 5.3 °C 1024.9 hPa Calm     98 % 0.0 mm
08:20 6.1 °C 5.8 °C 1024.9 hPa Calm     98 % 0.0 mm
08:25 6.6 °C 6.3 °C 1024.9 hPa Calm     98 % 0.0 mm
08:30 6.8 °C 6.6 °C 1024.9 hPa Calm     98 % 0.0 mm
08:35 7.3 °C 6.9 °C 1024.9 hPa Calm     98 % 0.0 mm
08:40 7.9 °C 7.7 °C 1024.9 hPa Calm     98 % 0.0 mm
08:45 8.2 °C 7.9 °C 1024.9 hPa Calm     98 % 0.0 mm
08:50 8.6 °C 8.3 °C 1024.9 hPa SSE 1.4 km/h 1.4 km/h 98 % 0.0 mm
08:52 8.7 °C 8.4 °C 1024.9 hPa SSW 3.2 km/h 3.2 km/h 98 % 0.0 mm
08:57 8.8 °C 8.5 °C 1024.9 hPa South 3.5 km/h 4.7 km/h 98 % 0.0 mm
09:02 9.1 °C 8.8 °C 1024.9 hPa South 2.1 km/h 6.1 km/h 98 % 0.0 mm
09:03 9.1 °C 8.8 °C 1024.9 hPa South 4.3 km/h 6.1 km/h 98 % 0.0 mm
09:08 9.3 °C 9.0 °C 1024.9 hPa South 3.2 km/h 6.1 km/h 98 % 0.0 mm
09:13 9.5 °C 9.2 °C 1024.9 hPa South 3.2 km/h 5.0 km/h 98 % 0.0 mm
09:18 9.8 °C 9.5 °C 1024.9 hPa South 3.5 km/h 5.0 km/h 98 % 0.0 mm
09:23 10.1 °C 9.8 °C 1024.9 hPa South 5.8 km/h 5.8 km/h 98 % 0.0 mm
09:28 10.4 °C 9.9 °C 1024.9 hPa South 4.7 km/h 5.8 km/h 97 % 0.0 mm
09:33 10.7 °C 10.2 °C 1024.9 hPa SSE 4.0 km/h 5.8 km/h 97 % 0.0 mm
09:38 11.2 °C 10.7 °C 1023.9 hPa SSW 2.6 km/h 5.5 km/h 97 % 0.0 mm
09:43 11.6 °C 11.1 °C 1023.9 hPa SW 4.7 km/h 5.5 km/h 97 % 0.0 mm
09:48 11.9 °C 11.3 °C 1023.9 hPa SSW 4.3 km/h 5.5 km/h 96 % 0.0 mm
09:53 12.2 °C 11.6 °C 1024.9 hPa SW 4.0 km/h 5.0 km/h 96 % 0.0 mm
09:58 12.7 °C 12.0 °C 1024.9 hPa SSW 4.3 km/h 6.4 km/h 96 % 0.0 mm
10:03 12.8 °C 12.1 °C 1024.9 hPa SSW 5.5 km/h 6.4 km/h 95 % 0.0 mm
10:08 13.2 °C 12.4 °C 1024.9 hPa SSW 3.2 km/h 5.8 km/h 95 % 0.0 mm
10:13 13.6 °C 12.7 °C 1024.9 hPa SSW 4.0 km/h 6.4 km/h 94 % 0.0 mm
10:18 14.1 °C 13.0 °C 1024.9 hPa SSW 5.5 km/h 6.4 km/h 93 % 0.0 mm
10:23 14.4 °C 13.1 °C 1024.9 hPa SSW 4.0 km/h 6.1 km/h 92 % 0.0 mm
10:28 14.8 °C 13.2 °C 1024.9 hPa South 4.3 km/h 6.1 km/h 90 % 0.0 mm
10:33 15.1 °C 13.3 °C 1024.9 hPa WSW 6.1 km/h 6.4 km/h 89 % 0.0 mm
10:38 15.3 °C 12.9 °C 1024.9 hPa SW 5.5 km/h 9.3 km/h 86 % 0.0 mm
10:43 15.4 °C 11.9 °C 1024.9 hPa South 10.1 km/h 12.6 km/h 80 % 0.0 mm
10:48 15.4 °C 11.0 °C 1024.9 hPa South 10.5 km/h 12.6 km/h 75 % 0.0 mm
10:53 15.6 °C 11.2 °C 1024.9 hPa South 7.9 km/h 11.9 km/h 75 % 0.0 mm
10:58 15.9 °C 11.1 °C 1024.9 hPa SSW 7.9 km/h 10.5 km/h 73 % 0.0 mm
11:03 16.0 °C 10.9 °C 1024.9 hPa SW 9.0 km/h 11.6 km/h 72 % 0.0 mm
11:08 16.3 °C 11.2 °C 1024.9 hPa SW 6.4 km/h 11.6 km/h 72 % 0.0 mm
11:13 16.4 °C 11.2 °C 1024.9 hPa WSW 7.9 km/h 10.5 km/h 71 % 0.0 mm
11:18 16.7 °C 11.2 °C 1024.9 hPa South 5.0 km/h 10.5 km/h 70 % 0.0 mm
11:24 16.8 °C 11.3 °C 1023.9 hPa WSW 5.8 km/h 10.5 km/h 70 % 0.0 mm
11:29 17.2 °C 11.4 °C 1023.9 hPa SSW 4.3 km/h 10.1 km/h 69 % 0.0 mm
11:34 17.2 °C 11.1 °C 1023.9 hPa SSW 5.8 km/h 9.3 km/h 67 % 0.0 mm
11:39 17.4 °C 11.2 °C 1023.9 hPa WSW 6.4 km/h 8.7 km/h 67 % 0.0 mm
11:44 17.7 °C 11.3 °C 1023.9 hPa SSE 9.3 km/h 10.5 km/h 66 % 0.0 mm
11:49 17.8 °C 10.9 °C 1023.9 hPa SW 8.7 km/h 10.5 km/h 64 % 0.0 mm
11:54 18.1 °C 11.1 °C 1023.9 hPa SW 6.1 km/h 10.5 km/h 64 % 0.0 mm
11:59 18.1 °C 10.6 °C 1023.9 hPa SSW 10.5 km/h 13.0 km/h 62 % 0.0 mm
12:04 17.9 °C 9.8 °C 1023.9 hPa SSW 7.9 km/h 13.7 km/h 59 % 0.0 mm
12:09 18.1 °C 9.9 °C 1022.9 hPa South 6.9 km/h 13.7 km/h 59 % 0.0 mm
12:14 18.2 °C 9.8 °C 1022.9 hPa SW 9.0 km/h 12.2 km/h 58 % 0.0 mm
12:19 18.1 °C 9.1 °C 1022.9 hPa SW 8.7 km/h 12.2 km/h 56 % 0.0 mm
12:24 18.2 °C 9.6 °C 1021.9 hPa SSW 9.3 km/h 12.2 km/h 57 % 0.0 mm
12:29 18.2 °C 9.1 °C 1021.9 hPa SSW 10.1 km/h 12.6 km/h 55 % 0.0 mm
12:34 18.3 °C 9.4 °C 1021.9 hPa SSE 9.0 km/h 12.6 km/h 56 % 0.0 mm
12:39 18.5 °C 9.3 °C 1022.9 hPa South 9.3 km/h 13.7 km/h 55 % 0.0 mm
12:44 18.5 °C 9.1 °C 1022.9 hPa WSW 8.7 km/h 16.9 km/h 54 % 0.0 mm
12:49 18.9 °C 9.7 °C 1022.9 hPa SE 9.0 km/h 16.9 km/h 55 % 0.0 mm
12:54 19.0 °C 9.2 °C 1022.9 hPa SSE 12.2 km/h 14.8 km/h 53 % 0.0 mm
12:59 18.8 °C 8.4 °C 1022.9 hPa SSW 9.0 km/h 17.7 km/h 51 % 0.0 mm
13:04 19.0 °C 8.9 °C 1022.9 hPa South 7.9 km/h 17.7 km/h 52 % 0.0 mm
13:09 19.2 °C 9.4 °C 1021.9 hPa SW 6.4 km/h 12.2 km/h 53 % 0.0 mm
13:14 19.2 °C 9.1 °C 1021.9 hPa South 10.5 km/h 13.7 km/h 52 % 0.0 mm
13:19 19.2 °C 8.8 °C 1021.9 hPa South 7.9 km/h 19.1 km/h 51 % 0.0 mm
13:24 19.1 °C 8.4 °C 1021.9 hPa SSW 11.9 km/h 19.1 km/h 50 % 0.0 mm
13:29 19.2 °C 8.5 °C 1021.9 hPa South 9.7 km/h 16.3 km/h 50 % 0.0 mm
13:34 19.3 °C 8.6 °C 1021.9 hPa South 10.1 km/h 14.0 km/h 50 % 0.0 mm
13:39 19.5 °C 8.8 °C 1020.9 hPa SSW 9.3 km/h 14.0 km/h 50 % 0.0 mm
13:44 19.4 °C 8.7 °C 1020.9 hPa SSE 11.9 km/h 12.6 km/h 50 % 0.0 mm
13:49 19.4 °C 8.7 °C 1020.9 hPa South 12.2 km/h 14.0 km/h 50 % 0.0 mm
13:54 19.4 °C 8.4 °C 1020.9 hPa SSE 6.9 km/h 14.0 km/h 49 % 0.0 mm
13:59 19.4 °C 8.4 °C 1020.9 hPa SE 10.5 km/h 13.7 km/h 49 % 0.0 mm
14:04 19.4 °C 8.4 °C 1020.9 hPa South 12.2 km/h 16.9 km/h 49 % 0.0 mm
14:09 19.3 °C 8.3 °C 1020.9 hPa SSE 12.2 km/h 16.9 km/h 49 % 0.0 mm
14:14 19.4 °C 8.4 °C 1020.9 hPa SSE 6.9 km/h 16.3 km/h 49 % 0.0 mm
14:19 19.3 °C 8.3 °C 1020.9 hPa South 9.7 km/h 16.3 km/h 49 % 0.0 mm
14:24 19.4 °C 8.4 °C 1019.9 hPa South 13.7 km/h 18.0 km/h 49 % 0.0 mm
14:29 19.4 °C 8.1 °C 1019.9 hPa SSE 10.5 km/h 18.0 km/h 48 % 0.0 mm
14:34 19.4 °C 8.1 °C 1019.9 hPa SSE 6.9 km/h 16.3 km/h 48 % 0.0 mm
14:39 19.4 °C 8.4 °C 1021.9 hPa South 8.7 km/h 17.2 km/h 49 % 0.0 mm
14:44 19.5 °C 8.5 °C 1021.9 hPa SW 15.4 km/h 17.7 km/h 49 % 0.0 mm
14:49 19.5 °C 8.2 °C 1021.9 hPa SSW 9.3 km/h 17.7 km/h 48 % 0.0 mm
14:54 19.5 °C 8.2 °C 1020.9 hPa South 12.2 km/h 14.0 km/h 48 % 0.0 mm
14:59 19.4 °C 8.1 °C 1020.9 hPa SSW 5.5 km/h 19.8 km/h 48 % 0.0 mm
15:04 19.6 °C 8.3 °C 1020.9 hPa South 12.6 km/h 19.8 km/h 48 % 0.0 mm
15:09 19.6 °C 8.0 °C 1020.9 hPa SSW 8.7 km/h 16.6 km/h 47 % 0.0 mm
15:14 19.7 °C 8.4 °C 1020.9 hPa South 5.5 km/h 16.6 km/h 48 % 0.0 mm
15:19 19.8 °C 8.4 °C 1020.9 hPa WSW 8.7 km/h 10.5 km/h 48 % 0.0 mm
15:24 19.8 °C 8.4 °C 1019.9 hPa WSW 10.5 km/h 13.7 km/h 48 % 0.0 mm
15:29 19.7 °C 8.1 °C 1019.9 hPa SSW 12.6 km/h 13.7 km/h 47 % 0.0 mm
15:34 19.6 °C 8.0 °C 1019.9 hPa South 9.0 km/h 14.0 km/h 47 % 0.0 mm
15:39 19.6 °C 8.0 °C 1018.8 hPa SSW 12.2 km/h 16.3 km/h 47 % 0.0 mm
15:44 19.5 °C 7.9 °C 1018.8 hPa South 12.2 km/h 16.3 km/h 47 % 0.0 mm
15:49 19.4 °C 7.8 °C 1018.8 hPa SW 8.7 km/h 15.8 km/h 47 % 0.0 mm
15:54 19.5 °C 7.9 °C 1018.8 hPa South 10.5 km/h 12.2 km/h 47 % 0.0 mm
15:59 19.3 °C 7.7 °C 1018.8 hPa SSW 10.8 km/h 14.8 km/h 47 % 0.0 mm
16:04 19.3 °C 7.7 °C 1018.8 hPa SSE 8.7 km/h 14.8 km/h 47 % 0.0 mm
16:05 19.4 °C 7.8 °C 1018.8 hPa SW 4.0 km/h 14.8 km/h 47 % 0.0 mm
16:10 19.4 °C 8.1 °C 1018.8 hPa SSW 10.5 km/h 16.3 km/h 48 % 0.0 mm
16:15 19.2 °C 7.6 °C 1018.8 hPa SSW 13.0 km/h 17.7 km/h 47 % 0.0 mm
16:20 19.1 °C 7.5 °C 1018.8 hPa South 5.0 km/h 17.7 km/h 47 % 0.0 mm
16:25 19.1 °C 7.5 °C 1018.8 hPa South 10.1 km/h 15.8 km/h 47 % 0.0 mm
16:30 19.0 °C 7.4 °C 1018.8 hPa SW 5.8 km/h 15.8 km/h 47 % 0.0 mm
16:35 19.0 °C 7.7 °C 1018.8 hPa SSW 9.0 km/h 16.3 km/h 48 % 0.0 mm
16:40 18.9 °C 7.7 °C 1018.8 hPa South 4.7 km/h 16.3 km/h 48 % 0.0 mm
16:45 18.8 °C 7.3 °C 1018.8 hPa South 6.4 km/h 15.1 km/h 47 % 0.0 mm
16:50 18.7 °C 7.5 °C 1018.8 hPa South 8.7 km/h 16.6 km/h 48 % 0.0 mm
16:55 18.6 °C 7.4 °C 1018.2 hPa South 5.5 km/h 16.6 km/h 48 % 0.0 mm
17:00 18.6 °C 7.4 °C 1018.2 hPa WSW 13.0 km/h 13.7 km/h 48 % 0.0 mm
17:05 18.6 °C 7.4 °C 1018.2 hPa SSW 11.9 km/h 14.0 km/h 48 % 0.0 mm
17:10 18.6 °C 7.7 °C 1018.2 hPa WSW 6.1 km/h 14.0 km/h 49 % 0.0 mm
17:15 18.6 °C 7.7 °C 1018.2 hPa SW 8.7 km/h 16.3 km/h 49 % 0.0 mm
17:20 18.5 °C 7.6 °C 1018.2 hPa SW 12.2 km/h 16.3 km/h 49 % 0.0 mm
17:25 18.3 °C 7.4 °C 1018.2 hPa SW 11.9 km/h 17.2 km/h 49 % 0.0 mm
17:30 18.1 °C 7.2 °C 1018.2 hPa WSW 12.6 km/h 19.8 km/h 49 % 0.0 mm
17:35 18.1 °C 7.2 °C 1018.2 hPa WSW 9.0 km/h 19.8 km/h 49 % 0.0 mm
17:40 17.9 °C 7.3 °C 1018.2 hPa SW 16.3 km/h 16.3 km/h 50 % 0.0 mm
17:46 17.7 °C 7.2 °C 1018.2 hPa SW 9.0 km/h 16.6 km/h 50 % 0.0 mm
17:51 17.6 °C 7.3 °C 1018.2 hPa SW 13.0 km/h 16.6 km/h 51 % 0.0 mm
17:56 17.3 °C 7.4 °C 1018.2 hPa SW 9.0 km/h 14.0 km/h 52 % 0.0 mm
18:01 17.1 °C 7.4 °C 1018.2 hPa SW 9.7 km/h 13.0 km/h 53 % 0.0 mm
18:06 16.8 °C 7.4 °C 1018.2 hPa SSW 6.1 km/h 13.0 km/h 54 % 0.0 mm
18:11 16.6 °C 7.5 °C 1018.2 hPa SW 5.8 km/h 10.8 km/h 55 % 0.0 mm
18:16 16.4 °C 7.6 °C 1018.2 hPa SSW 9.7 km/h 12.2 km/h 56 % 0.0 mm
18:21 16.3 °C 7.7 °C 1018.2 hPa WSW 7.9 km/h 12.6 km/h 57 % 0.0 mm
18:26 16.1 °C 7.6 °C 1018.2 hPa WSW 7.9 km/h 12.6 km/h 57 % 0.0 mm
18:31 15.9 °C 7.6 °C 1018.2 hPa Calm   12.6 km/h 58 % 0.0 mm
18:36 15.6 °C 7.6 °C 1018.2 hPa Calm   7.6 km/h 59 % 0.0 mm
18:41 15.4 °C 7.4 °C 1018.2 hPa SSW 6.1 km/h 6.1 km/h 59 % 0.0 mm
18:46 15.1 °C 7.4 °C 1018.2 hPa SSW 1.8 km/h 6.1 km/h 60 % 0.0 mm
18:47 15.0 °C 7.3 °C 1018.2 hPa Calm   6.1 km/h 60 % 0.0 mm
18:52 14.7 °C 7.3 °C 1018.2 hPa Calm   5.0 km/h 61 % 0.0 mm
18:57 14.4 °C 7.4 °C 1018.2 hPa Calm   5.5 km/h 63 % 0.0 mm
19:02 14.0 °C 7.3 °C 1018.2 hPa Calm   5.5 km/h 64 % 0.0 mm
19:07 13.7 °C 7.3 °C 1018.2 hPa Calm     65 % 0.0 mm
19:12 13.4 °C 7.2 °C 1016.8 hPa Calm     66 % 0.0 mm
19:17 13.1 °C 7.1 °C 1016.8 hPa Calm     67 % 0.0 mm
19:22 12.8 °C 7.1 °C 1016.8 hPa Calm     68 % 0.0 mm
19:27 12.7 °C 7.1 °C 1016.8 hPa Calm     69 % 0.0 mm
19:32 12.4 °C 7.1 °C 1016.8 hPa Calm   1.4 km/h 70 % 0.0 mm
19:37 12.2 °C 6.9 °C 1016.8 hPa Calm   1.4 km/h 70 % 0.0 mm
19:42 12.1 °C 6.9 °C 1016.8 hPa Calm   1.4 km/h 71 % 0.0 mm
19:47 11.8 °C 6.9 °C 1016.8 hPa Calm     72 % 0.0 mm
19:52 11.8 °C 7.1 °C 1016.8 hPa Calm     73 % 0.0 mm
19:57 11.9 °C 7.3 °C 1016.8 hPa Calm   5.8 km/h 73 % 0.0 mm
20:02 12.2 °C 7.7 °C 1016.8 hPa West 6.1 km/h 6.9 km/h 74 % 0.0 mm
20:07 12.2 °C 7.7 °C 1016.8 hPa Calm   6.9 km/h 74 % 0.0 mm
20:12 11.8 °C 7.2 °C 1016.8 hPa Calm   5.0 km/h 73 % 0.0 mm
20:17 11.6 °C 7.1 °C 1016.8 hPa Calm   1.4 km/h 74 % 0.0 mm
20:22 11.3 °C 6.8 °C 1018.2 hPa Calm   3.5 km/h 74 % 0.0 mm
20:27 11.0 °C 6.7 °C 1018.2 hPa Calm   3.5 km/h 75 % 0.0 mm
20:29 11.0 °C 6.7 °C 1018.2 hPa WNW 2.6 km/h 3.5 km/h 75 % 0.0 mm
20:34 11.0 °C 6.9 °C 1018.2 hPa Calm   4.3 km/h 76 % 0.0 mm
20:39 10.8 °C 6.7 °C 1016.8 hPa Calm   4.3 km/h 76 % 0.0 mm
20:44 10.5 °C 6.6 °C 1016.8 hPa Calm   4.0 km/h 77 % 0.0 mm
20:49 10.2 °C 6.3 °C 1016.8 hPa Calm     77 % 0.0 mm
20:54 10.0 °C 6.3 °C 1016.8 hPa Calm     78 % 0.0 mm
20:59 9.8 °C 6.3 °C 1016.8 hPa Calm     79 % 0.0 mm
21:04 9.7 °C 6.4 °C 1016.8 hPa Calm     80 % 0.0 mm
21:09 9.6 °C 6.3 °C 1016.8 hPa Calm     80 % 0.0 mm
21:14 9.4 °C 6.3 °C 1016.8 hPa Calm     81 % 0.0 mm
21:19 9.3 °C 6.4 °C 1016.8 hPa Calm     82 % 0.0 mm
21:24 9.1 °C 6.2 °C 1018.2 hPa Calm     82 % 0.0 mm
21:29 9.0 °C 6.3 °C 1018.2 hPa Calm   1.4 km/h 83 % 0.0 mm
21:34 9.1 °C 6.6 °C 1018.2 hPa Calm   3.2 km/h 84 % 0.0 mm
21:39 9.1 °C 6.6 °C 1018.2 hPa WNW 1.8 km/h 3.2 km/h 84 % 0.0 mm
21:44 8.9 °C 6.3 °C 1018.2 hPa Calm   3.2 km/h 84 % 0.0 mm
21:49 9.0 °C 6.6 °C 1018.2 hPa Calm   4.7 km/h 85 % 0.0 mm
21:54 9.0 °C 6.6 °C 1018.2 hPa West 4.7 km/h 4.7 km/h 85 % 0.0 mm
21:59 8.9 °C 6.7 °C 1018.2 hPa Calm   4.7 km/h 86 % 0.0 mm
22:04 8.8 °C 6.6 °C 1018.2 hPa West 3.2 km/h 6.9 km/h 86 % 0.0 mm
22:09 8.6 °C 6.4 °C 1018.2 hPa West 4.3 km/h 7.6 km/h 86 % 0.0 mm
22:14 8.6 °C 6.4 °C 1018.2 hPa West 6.1 km/h 7.6 km/h 86 % 0.0 mm
22:19 8.8 °C 6.6 °C 1018.2 hPa WNW 5.0 km/h 7.6 km/h 86 % 0.0 mm
22:24 9.2 °C 7.5 °C 1018.2 hPa WNW 6.1 km/h 11.1 km/h 89 % 0.0 mm
22:29 9.6 °C 8.1 °C 1018.2 hPa West 7.9 km/h 12.6 km/h 90 % 0.0 mm
22:35 9.9 °C 8.2 °C 1018.2 hPa West 4.7 km/h 12.6 km/h 89 % 0.0 mm
22:39 9.9 °C 8.0 °C 1018.2 hPa West 5.8 km/h 9.0 km/h 88 % 0.0 mm
22:44 9.7 °C 7.8 °C 1018.2 hPa West 2.6 km/h 6.9 km/h 88 % 0.0 mm
22:49 9.5 °C 7.3 °C 1018.2 hPa West 4.0 km/h 6.9 km/h 86 % 0.0 mm
22:55 9.2 °C 7.0 °C 1018.2 hPa West 6.4 km/h 6.4 km/h 86 % 0.0 mm
23:00 9.2 °C 7.0 °C 1018.2 hPa West 5.5 km/h 7.9 km/h 86 % 0.0 mm
23:05 9.0 °C 6.8 °C 1018.2 hPa WSW 4.7 km/h 7.9 km/h 86 % 0.0 mm
23:10 8.8 °C 6.6 °C 1016.8 hPa WSW 4.0 km/h 6.9 km/h 86 % 0.0 mm
23:15 8.6 °C 6.4 °C 1016.8 hPa West 6.4 km/h 6.9 km/h 86 % 0.0 mm
23:20 8.6 °C 6.4 °C 1016.8 hPa WSW 6.4 km/h 7.6 km/h 86 % 0.0 mm
23:25 8.5 °C 6.5 °C 1018.2 hPa WSW 7.6 km/h 7.6 km/h 87 % 0.0 mm
23:30 8.5 °C 6.5 °C 1018.2 hPa West 9.0 km/h 9.0 km/h 87 % 0.0 mm
23:35 8.6 °C 6.7 °C 1018.2 hPa WSW 6.9 km/h 10.8 km/h 88 % 0.0 mm
23:40 8.6 °C 6.9 °C 1018.2 hPa West 6.9 km/h 10.8 km/h 89 % 0.0 mm
23:45 8.5 °C 6.8 °C 1018.2 hPa WSW 8.7 km/h 9.3 km/h 89 % 0.0 mm
23:50 8.4 °C 6.7 °C 1018.2 hPa West 6.9 km/h 9.3 km/h 89 % 0.0 mm
23:55 8.3 °C 6.6 °C 1016.8 hPa West 9.0 km/h 11.6 km/h 89 % 0.0 mm
Le Gheer Warneton
Courtoisie de Weather Underground - 2.25 mb

Mise a jour : 18/12/2017 17:21:11
Généré par Cumulus 1.9.4 (1099)